D/T METAR WX W/DIR W/SPE G/SPE TEMP DEWP
19/01/20 08:50 EGOS 190850Z AUTO 17002KT 9999 FEW006/// M01/M01 Q1044 S (170°) 2.3mph -1°C -1°C
19/01/20 07:50 EGOS 190750Z AUTO 24001KT 9999 NCD M01/M02 Q1044 WSW (240°) 1.2mph -1°C -2°C
19/01/20 06:50 EGOS 190650Z AUTO 25002KT 9999 NCD M02/M02 Q1042 WSW (250°) 2.3mph -2°C -2°C
19/01/20 05:50 EGOS 190550Z AUTO 33001KT 9999 NCD M01/M02 Q1042 NNW (330°) 1.2mph -1°C -2°C
19/01/20 04:50 EGOS 190450Z AUTO 26003KT 7000 BR NCD M02/M03 Q1041 BR W (260°) 3.5mph -2°C -3°C
19/01/20 03:50 EGOS 190350Z AUTO 01001KT 9999 NCD M02/M03 Q1040 N (10°) 1.2mph -2°C -3°C
19/01/20 02:50 EGOS 190250Z AUTO 25004KT 9999 FEW009/// M00/M01 Q1040 WSW (250°) 4.6mph 0°C -1°C
19/01/20 01:50 EGOS 190150Z AUTO 26006KT 9999 BKN011/// M00/M01 Q1039 W (260°) 6.9mph 0°C -1°C
19/01/20 00:50 EGOS 190050Z AUTO 23004KT 9999 SCT140/// 01/M00 Q1038 SW (230°) 4.6mph 1°C 0°C
18/01/20 23:50 EGOS 182350Z AUTO 30006KT 9999 FEW017/// BKN150/// 03/01 Q1037 WNW (300°) 6.9mph 3°C 1°C
18/01/20 22:50 EGOS 182250Z AUTO 31009KT 9999 OVC170/// 04/02 Q1036 NW (310°) 10.4mph 4°C 2°C
18/01/20 21:50 EGOS 182150Z AUTO 29007KT 9999 BKN170/// 04/01 Q1035 WNW (290°) 8.1mph 4°C 1°C
18/01/20 20:50 EGOS 182050Z AUTO 28009KT 9999 BKN180/// 03/01 Q1035 W (280°) 10.4mph 3°C 1°C
18/01/20 19:50 EGOS 181950Z AUTO 29005KT 9999 BKN170/// 03/00 Q1034 WNW (290°) 5.8mph 3°C 0°C
18/01/20 18:50 EGOS 181850Z AUTO 30005KT 9999 FEW180/// 03/00 Q1033 WNW (300°) 5.8mph 3°C 0°C
18/01/20 17:50 EGOS 181750Z AUTO 29006KT 9999 SCT150/// 03/M00 Q1032 WNW (290°) 6.9mph 3°C 0°C
18/01/20 16:50 EGOS 181650Z AUTO 27006KT 9999 SCT160/// 04/01 Q1031 W (270°) 6.9mph 4°C 1°C
18/01/20 15:50 EGOS 181550Z AUTO 27007KT 9999 NCD 05/01 Q1030 W (270°) 8.1mph 5°C 1°C
18/01/20 14:50 EGOS 181450Z AUTO 27007KT 9999 FEW034/// 06/02 Q1030 W (270°) 8.1mph 6°C 2°C
18/01/20 13:50 EGOS 181350Z AUTO 26008KT 9999 SCT044/// 06/02 Q1029 W (260°) 9.2mph 6°C 2°C
18/01/20 12:50 EGOS 181250Z AUTO 26008KT 9999 FEW034/// 06/02 Q1029 W (260°) 9.2mph 6°C 2°C
18/01/20 11:50 EGOS 181150Z AUTO 25009KT 9999 NCD 05/01 Q1028 WSW (250°) 10.4mph 5°C 1°C
18/01/20 10:50 EGOS 181050Z AUTO 26010KT 9999 NCD 04/01 Q1027 W (260°) 11.5mph 4°C 1°C
18/01/20 09:50 EGOS 180950Z AUTO 26008KT 9999 NCD 02/00 Q1026 W (260°) 9.2mph 2°C 0°C
18/01/20 08:50 EGOS 180850Z AUTO 26009KT 9999 NCD 00/M01 Q1026 W (260°) 10.4mph 0°C -1°C
18/01/20 07:50 EGOS 180750Z AUTO 27011KT 9999 NCD 02/M00 Q1025 W (270°) 12.7mph 2°C 0°C
18/01/20 06:50 EGOS 180650Z AUTO 27010KT 9999 NCD 02/M01 Q1024 W (270°) 11.5mph 2°C -1°C
18/01/20 05:50 EGOS 180550Z AUTO 26009KT 9999 NCD M00/M02 Q1023 W (260°) 10.4mph 0°C -2°C
18/01/20 04:50 EGOS 180450Z AUTO 26008KT 9999 NCD M00/M02 Q1022 W (260°) 9.2mph 0°C -2°C
18/01/20 03:50 EGOS 180350Z AUTO 26009KT 9999 NCD 02/M00 Q1022 W (260°) 10.4mph 2°C 0°C
18/01/20 02:50 EGOS 180250Z AUTO 27008KT 9999 NCD 02/00 Q1021 W (270°) 9.2mph 2°C 0°C
18/01/20 01:50 EGOS 180150Z AUTO 25007KT 9999 NCD 01/M00 Q1020 WSW (250°) 8.1mph 1°C 0°C
18/01/20 00:50 EGOS 180050Z AUTO 27007KT 9999 NCD 02/01 Q1020 W (270°) 8.1mph 2°C 1°C
17/01/20 23:50 EGOS 172350Z AUTO 26009KT 9999 NCD 02/01 Q1019 W (260°) 10.4mph 2°C 1°C
17/01/20 22:50 EGOS 172250Z AUTO 27010KT 9999 NCD 02/01 Q1018 W (270°) 11.5mph 2°C 1°C
17/01/20 21:50 EGOS 172150Z AUTO 26009KT 9999 FEW060/// 02/01 Q1017 W (260°) 10.4mph 2°C 1°C
17/01/20 20:50 EGOS 172050Z AUTO 23007KT 9999 SCT050/// SCT130/// 03/02 Q1016 SW (230°) 8.1mph 3°C 2°C
17/01/20 19:50 EGOS 171950Z AUTO 22007KT 9999 FEW130/// 03/01 Q1015 SW (220°) 8.1mph 3°C 1°C
17/01/20 18:50 EGOS 171850Z AUTO 24008KT 9999 NCD 03/01 Q1014 WSW (240°) 9.2mph 3°C 1°C
17/01/20 17:50 EGOS 171750Z AUTO 22012KT 9999 FEW170/// 04/02 Q1013 SW (220°) 13.8mph 4°C 2°C
17/01/20 16:50 EGOS 171650Z 22013KT 9999 FEW020 05/02 Q1013 RMK BLU SW (220°) 15.0mph 5°C 2°C
17/01/20 16:20 EGOS 171620Z 23006KT 9999 FEW020 04/02 Q1012 NOSIG RMK BLU BLU SW (230°) 6.9mph 4°C 2°C
17/01/20 15:50 EGOS 171550Z 24004KT 9999 FEW018 05/02 Q1012 NOSIG RMK BLU BLU WSW (240°) 4.6mph 5°C 2°C
17/01/20 15:20 EGOS 171520Z 23003KT 9999 FEW018 06/03 Q1012 NOSIG RMK BLU BLU SW (230°) 3.5mph 6°C 3°C
17/01/20 14:50 EGOS 171450Z 23005KT 9999 FEW018 SCT220 07/03 Q1011 NOSIG RMK BLU BLU SW (230°) 5.8mph 7°C 3°C
17/01/20 14:20 EGOS 171420Z 23008KT 9999 FEW018 BKN250 06/03 Q1011 NOSIG RMK BLU BLU SW (230°) 9.2mph 6°C 3°C
17/01/20 13:50 EGOS 171350Z 23007KT 9999 FEW018 BKN220 05/03 Q1011 NOSIG RMK BLU BLU SW (230°) 8.1mph 5°C 3°C
17/01/20 13:20 EGOS 171320Z 24007KT 9999 FEW018 SCT080 BKN200 05/03 Q1011 NOSIG RMK BLU BLU WSW (240°) 8.1mph 5°C 3°C